If you wish to contribute or participate in the discussions about articles you are invited to join SKYbrary as a registered user

 Actions

San Javier Airport

From SKYbrary Wiki

LELC
Airport
ICAO: LELC – IATA: MJV
Summary
Name San Javier Airport
Region Europe
Territory Spain ES.gif
Location
Serving Murcia
Elevation 3.353 m
11 ft
11 ft3.353 m
Type medium airport
Coordinates 37° 46' 29.90" N, 0° 48' 44.60" W
Runways
Designator Length Width Surface ROPS
5/23 2300 m7,545.932 ft
60 m196.85 ft
ASP no/no
05L/23R 874 m2,867.454 ft
60 m196.85 ft
GRS yes/yes
14/32 800 m2,624.672 ft
60 m196.85 ft
GRS /


METAR
Observation LELC 200700Z 04014KT 9999 BKN013 BKN023 24/22 Q1016 NOSIG
Station Murcia / San Javier
Date/Time 20 September 2019 07:00:00
Wind direction 40°
Wind speed 14 kts
Lowest cloud amount broken clouds
Temperature 24°C
Dew point 22°C
Humidity 88%
QNH 1016 hPa
Weather condition n/a